Time;durP1;ratioP1;P1;durP2;ratioP2;P2;SDS_P1;SDS_P2;PMS_P1;PMS_P2;Temp;Humidity;BMP_temperature;BMP_pressure;BME280_temperature;BME280_humidity;BME280_pressure;Samples;Min_cycle;Max_cycle;Signal;HPM_P1;HPM_P2
2023/04/22 00:03:27;;;;;;;;;;;9.92;1.20;;;;;;2672461;76;20460;-92
2023/04/22 00:06:55;;;;;;;;;;;9.86;1.23;;;;;;2672490;76;20507;-92
2023/04/22 00:10:23;;;;;;;;;;;9.86;1.34;;;;;;2671475;76;21263;-91
2023/04/22 00:13:52;;;;;;;;;;;9.79;2.22;;;;;;2671016;76;20474;-91
2023/04/22 00:17:20;;;;;;;;;;;9.75;2.12;;;;;;2670994;76;20834;-92
2023/04/22 00:20:50;;;;;;;;;;;9.74;1.99;;;;;;2673096;76;20978;-91
2023/04/22 00:24:18;;;;;;;;;;;9.71;2.09;;;;;;2671122;76;20457;-93
2023/04/22 00:27:46;;;;;;;;;;;9.74;2.22;;;;;;2671296;76;21020;-91
2023/04/22 00:31:14;;;;;;;;;;;9.74;2.26;;;;;;2672224;76;20433;-93
2023/04/22 00:34:42;;;;;;;;;;;9.74;2.48;;;;;;2671999;76;20415;-92
2023/04/22 00:38:11;;;;;;;;;;;9.72;2.69;;;;;;2671849;76;20419;-91
2023/04/22 00:41:39;;;;;;;;;;;9.69;2.67;;;;;;2672783;76;20419;-92
2023/04/22 00:45:07;;;;;;;;;;;9.70;2.65;;;;;;2676870;76;20445;-92
2023/04/22 00:48:35;;;;;;;;;;;9.68;2.59;;;;;;2672963;76;20408;-92
2023/04/22 00:52:03;;;;;;;;;;;9.68;2.77;;;;;;2672938;76;20439;-92
2023/04/22 00:55:32;;;;;;;;;;;9.67;2.83;;;;;;2672028;76;20426;-92
2023/04/22 00:59:09;;;;;;;;;;;9.71;2.91;;;;;;2671624;76;20947;-92
2023/04/22 01:02:37;;;;;;;;;;;9.69;2.90;;;;;;2671942;76;20439;-92
2023/04/22 01:06:08;;;;;;;;;;;9.62;3.00;;;;;;2672192;76;20466;-90
2023/04/22 01:09:39;;;;;;;;;;;9.60;3.32;;;;;;2671762;76;20481;-92
2023/04/22 01:13:10;;;;;;;;;;;9.64;3.28;;;;;;2671332;76;20456;-90
2023/04/22 01:16:38;;;;;;;;;;;9.62;3.32;;;;;;2672165;76;20305;-90
2023/04/22 01:20:09;;;;;;;;;;;9.54;3.28;;;;;;2670407;76;20403;-91
2023/04/22 01:23:36;;;;;;;;;;;9.50;3.48;;;;;;2671298;76;20420;-91
2023/04/22 01:27:04;;;;;;;;;;;9.48;3.60;;;;;;2671661;76;20354;-91
2023/04/22 01:30:32;;;;;;;;;;;9.42;3.73;;;;;;2672415;76;20326;-91
2023/04/22 01:34:05;;;;;;;;;;;9.40;3.78;;;;;;2671818;76;20299;-92
2023/04/22 01:37:30;;;;;;;;;;;9.35;3.67;;;;;;2671676;76;21337;-92
2023/04/22 01:40:59;;;;;;;;;;;9.33;3.73;;;;;;2672224;76;20348;-92
2023/04/22 01:44:27;;;;;;;;;;;9.31;3.79;;;;;;2671413;76;20322;-92
2023/04/22 01:47:55;;;;;;;;;;;9.32;3.81;;;;;;2670354;76;20330;-92
2023/04/22 01:51:26;;;;;;;;;;;9.22;3.99;;;;;;2672691;76;20419;-93
2023/04/22 01:54:54;;;;;;;;;;;9.11;4.16;;;;;;2671167;76;20484;-91
2023/04/22 01:58:22;;;;;;;;;;;8.91;5.06;;;;;;2671455;76;20913;-92
2023/04/22 02:01:50;;;;;;;;;;;8.89;5.12;;;;;;2671872;76;20468;-93
2023/04/22 02:05:18;;;;;;;;;;;8.92;4.86;;;;;;2671243;76;20451;-94
2023/04/22 02:08:46;;;;;;;;;;;8.88;4.74;;;;;;2670619;76;20447;-92
2023/04/22 02:12:15;;;;;;;;;;;8.87;4.80;;;;;;2671151;76;20433;-91
2023/04/22 02:15:43;;;;;;;;;;;8.86;4.81;;;;;;2671179;76;20961;-91
2023/04/22 02:19:19;;;;;;;;;;;8.85;4.73;;;;;;2670634;76;20418;-92
2023/04/22 02:22:56;;;;;;;;;;;8.82;4.67;;;;;;2670804;76;20920;-92
2023/04/22 02:26:25;;;;;;;;;;;8.80;4.80;;;;;;2671766;76;20879;-91
2023/04/22 02:29:51;;;;;;;;;;;8.75;4.93;;;;;;2671235;76;20448;-91
2023/04/22 02:33:22;;;;;;;;;;;8.73;5.06;;;;;;2671354;76;20982;-91
2023/04/22 02:36:56;;;;;;;;;;;8.77;5.08;;;;;;2672214;76;20464;-91
2023/04/22 02:40:24;;;;;;;;;;;8.76;4.93;;;;;;2670938;76;20461;-91
2023/04/22 02:43:52;;;;;;;;;;;8.73;4.93;;;;;;2671197;76;20449;-91
2023/04/22 02:47:21;;;;;;;;;;;8.68;4.94;;;;;;2671449;76;20463;-91
2023/04/22 02:50:51;;;;;;;;;;;8.60;5.05;;;;;;2671056;76;20453;-91
2023/04/22 02:54:21;;;;;;;;;;;8.53;5.12;;;;;;2670939;76;20413;-92
2023/04/22 02:57:54;;;;;;;;;;;8.52;5.24;;;;;;2670260;76;20453;-92
2023/04/22 03:01:25;;;;;;;;;;;8.50;5.12;;;;;;2670733;76;20435;-91
2023/04/22 03:04:53;;;;;;;;;;;8.42;5.08;;;;;;2671061;76;20480;-91
2023/04/22 03:08:24;;;;;;;;;;;8.33;5.17;;;;;;2670608;76;20513;-91
2023/04/22 03:11:52;;;;;;;;;;;8.30;5.26;;;;;;2671317;76;20409;-91
2023/04/22 03:15:20;;;;;;;;;;;8.21;5.36;;;;;;2670708;76;20405;-91
2023/04/22 03:18:56;;;;;;;;;;;8.17;5.33;;;;;;2671516;76;20418;-91
2023/04/22 03:22:27;;;;;;;;;;;8.09;5.63;;;;;;2672548;76;20466;-93
2023/04/22 03:25:49;;;;;;;;;;;8.08;5.54;;;;;;2671625;76;20321;-92
2023/04/22 03:29:18;;;;;;;;;;;8.08;5.31;;;;;;2671080;76;20471;-92
2023/04/22 03:32:48;;;;;;;;;;;8.02;5.18;;;;;;2672756;76;20433;-93
2023/04/22 03:36:16;;;;;;;;;;;7.93;5.25;;;;;;2685176;76;20238;-95
2023/04/22 03:39:44;;;;;;;;;;;7.89;5.36;;;;;;2676481;76;20321;-93
2023/04/22 03:43:15;;;;;;;;;;;7.87;5.40;;;;;;2676076;76;20437;-92
2023/04/22 03:46:48;;;;;;;;;;;7.85;5.46;;;;;;2675729;76;20410;-92
2023/04/22 03:50:16;;;;;;;;;;;7.82;5.31;;;;;;2676068;76;20447;-93
2023/04/22 03:53:45;;;;;;;;;;;7.78;5.34;;;;;;2681828;76;20293;-94
2023/04/22 03:57:13;;;;;;;;;;;7.70;5.31;;;;;;2684051;76;20243;-95
2023/04/22 04:00:41;;;;;;;;;;;7.65;5.34;;;;;;2683194;76;20375;-96
2023/04/22 04:04:09;;;;;;;;;;;7.67;5.34;;;;;;2684524;76;20256;-96
2023/04/22 04:07:38;;;;;;;;;;;7.64;5.32;;;;;;2683482;76;20549;-96
2023/04/22 04:11:06;;;;;;;;;;;7.62;5.47;;;;;;2682312;76;20462;-96
2023/04/22 04:14:34;;;;;;;;;;;7.61;5.34;;;;;;2685306;76;20236;-95
2023/04/22 04:18:03;;;;;;;;;;;7.61;5.31;;;;;;2683338;76;20438;-93
2023/04/22 04:21:35;;;;;;;;;;;7.67;5.47;;;;;;2682730;76;20435;-93
2023/04/22 04:25:03;;;;;;;;;;;7.69;5.80;;;;;;2681464;76;20464;-93
2023/04/22 04:28:33;;;;;;;;;;;7.67;5.99;;;;;;2682385;76;20415;-94
2023/04/22 04:32:07;;;;;;;;;;;7.72;6.12;;;;;;2684086;76;20441;-92
2023/04/22 04:35:49;;;;;;;;;;;7.81;5.93;;;;;;2673682;76;20453;-92
2023/04/22 04:39:25;;;;;;;;;;;7.84;6.08;;;;;;2682424;76;20436;-96
2023/04/22 04:43:07;;;;;;;;;;;7.96;6.14;;;;;;2686394;76;20446;-94
2023/04/22 04:46:36;;;;;;;;;;;8.04;6.02;;;;;;2686071;76;20292;-94
2023/04/22 04:49:59;;;;;;;;;;;8.19;6.09;;;;;;2681260;76;20451;-93
2023/04/22 04:53:41;;;;;;;;;;;8.33;6.05;;;;;;2676805;76;20462;-93
2023/04/22 04:57:10;;;;;;;;;;;8.44;5.99;;;;;;2676936;76;20469;-94
2023/04/22 05:00:38;;;;;;;;;;;8.58;6.04;;;;;;2680298;76;20226;-94
2023/04/22 05:04:12;;;;;;;;;;;8.60;6.21;;;;;;2685026;76;20290;-94
2023/04/22 05:07:40;;;;;;;;;;;8.72;6.20;;;;;;2684711;76;20271;-94
2023/04/22 05:11:08;;;;;;;;;;;8.77;6.20;;;;;;2678313;76;20424;-92
2023/04/22 05:14:46;;;;;;;;;;;8.86;6.34;;;;;;2674919;76;20441;-92
2023/04/22 05:18:17;;;;;;;;;;;8.98;6.48;;;;;;2677809;76;20799;-92
2023/04/22 05:21:51;;;;;;;;;;;9.11;6.47;;;;;;2677104;76;20775;-92
2023/04/22 05:25:32;;;;;;;;;;;9.27;6.79;;;;;;2678393;76;20296;-94
2023/04/22 05:29:03;;;;;;;;;;;9.39;7.37;;;;;;2681536;76;20452;-93
2023/04/22 05:32:31;;;;;;;;;;;9.61;7.37;;;;;;2682169;76;20436;-93
2023/04/22 05:36:05;;;;;;;;;;;9.78;7.41;;;;;;2681609;76;20415;-94
2023/04/22 05:39:36;;;;;;;;;;;9.96;7.69;;;;;;2679863;76;20441;-93
2023/04/22 05:43:04;;;;;;;;;;;10.10;7.95;;;;;;2680180;76;20440;-93
2023/04/22 05:46:33;;;;;;;;;;;10.30;8.13;;;;;;2681066;76;20441;-93
2023/04/22 05:50:09;;;;;;;;;;;10.43;8.57;;;;;;2680887;76;20318;-93
2023/04/22 05:53:42;;;;;;;;;;;10.57;8.73;;;;;;2680755;76;20430;-93
2023/04/22 05:57:10;;;;;;;;;;;10.69;8.76;;;;;;2682212;76;20313;-92
2023/04/22 06:00:39;;;;;;;;;;;10.86;8.85;;;;;;2680654;76;20307;-93
2023/04/22 06:04:22;;;;;;;;;;;11.04;8.65;;;;;;2685792;76;20303;-96
2023/04/22 06:07:37;;;;;;;;;;;11.19;8.53;;;;;;2685096;76;20244;-96
2023/04/22 06:11:13;;;;;;;;;;;11.34;8.31;;;;;;2684025;76;20478;-96
2023/04/22 06:14:42;;;;;;;;;;;11.48;8.24;;;;;;2683940;76;20382;-95
2023/04/22 06:18:18;;;;;;;;;;;11.62;8.18;;;;;;2683053;76;20298;-93
2023/04/22 06:22:05;;;;;;;;;;;11.78;8.14;;;;;;2678265;76;20328;-93
2023/04/22 06:25:33;;;;;;;;;;;11.92;8.17;;;;;;2676885;76;20943;-93
2023/04/22 06:29:04;;;;;;;;;;;12.06;8.02;;;;;;2676725;76;20420;-92
2023/04/22 06:32:32;;;;;;;;;;;12.22;8.01;;;;;;2673533;76;20951;-92
2023/04/22 06:36:00;;;;;;;;;;;12.36;8.04;;;;;;2672887;76;20444;-92
2023/04/22 06:39:28;;;;;;;;;;;12.51;7.92;;;;;;2672088;76;20827;-92
2023/04/22 06:42:56;;;;;;;;;;;12.64;7.74;;;;;;2672573;76;20902;-92
2023/04/22 06:46:24;;;;;;;;;;;12.81;7.80;;;;;;2671878;76;20460;-91
2023/04/22 06:49:53;;;;;;;;;;;12.93;7.45;;;;;;2672461;76;20432;-92
2023/04/22 06:53:21;;;;;;;;;;;12.99;7.37;;;;;;2671961;76;20465;-92
2023/04/22 06:56:49;;;;;;;;;;;13.06;7.18;;;;;;2672352;76;20474;-92
2023/04/22 07:00:17;;;;;;;;;;;13.19;7.20;;;;;;2671424;76;20945;-92
2023/04/22 07:03:45;;;;;;;;;;;13.31;7.22;;;;;;2670347;76;20442;-92
2023/04/22 07:07:13;;;;;;;;;;;13.38;7.05;;;;;;2670995;76;20447;-92
2023/04/22 07:10:41;;;;;;;;;;;13.49;7.06;;;;;;2671223;76;20447;-93
2023/04/22 07:14:09;;;;;;;;;;;13.60;6.91;;;;;;2671807;76;20304;-92
2023/04/22 07:17:37;;;;;;;;;;;13.73;6.44;;;;;;2671931;76;20410;-92
2023/04/22 07:21:06;;;;;;;;;;;13.93;6.56;;;;;;2670656;76;20424;-94
2023/04/22 07:24:34;;;;;;;;;;;14.11;6.38;;;;;;2670359;76;20450;-92
2023/04/22 07:28:02;;;;;;;;;;;14.27;6.38;;;;;;2671616;76;20441;-92
2023/04/22 07:31:30;;;;;;;;;;;14.47;6.25;;;;;;2670445;76;20488;-93
2023/04/22 07:34:58;;;;;;;;;;;14.57;5.82;;;;;;2669494;76;20449;-93
2023/04/22 07:38:26;;;;;;;;;;;14.68;5.29;;;;;;2672830;76;20433;-90
2023/04/22 07:41:56;;;;;;;;;;;14.82;4.20;;;;;;2672260;76;20434;-91
2023/04/22 07:45:24;;;;;;;;;;;14.88;3.43;;;;;;2671573;76;20908;-91
2023/04/22 07:48:52;;;;;;;;;;;15.04;3.09;;;;;;2672586;76;20418;-91
2023/04/22 07:52:20;;;;;;;;;;;15.21;2.74;;;;;;2672784;76;20438;-91
2023/04/22 07:55:48;;;;;;;;;;;15.25;2.54;;;;;;2671618;76;20422;-91
2023/04/22 07:59:16;;;;;;;;;;;15.30;2.25;;;;;;2670080;76;20389;-91
2023/04/22 08:02:46;;;;;;;;;;;15.40;1.72;;;;;;2668987;76;20954;-91
2023/04/22 08:06:14;;;;;;;;;;;15.43;1.62;;;;;;2670391;76;20311;-91
2023/04/22 08:09:44;;;;;;;;;;;15.52;1.57;;;;;;2672095;76;20312;-91
2023/04/22 08:13:12;;;;;;;;;;;15.62;1.29;;;;;;2672636;76;20360;-91
2023/04/22 08:16:40;;;;;;;;;;;15.73;1.59;;;;;;2671787;76;20475;-90
2023/04/22 08:20:08;;;;;;;;;;;15.77;1.74;;;;;;2671078;76;20309;-91
2023/04/22 08:23:36;;;;;;;;;;;15.84;1.45;;;;;;2671281;76;20408;-91
2023/04/22 08:27:04;;;;;;;;;;;15.92;0.43;;;;;;2671865;76;20329;-91
2023/04/22 08:30:32;;;;;;;;;;;16.13;0.69;;;;;;2670340;76;20429;-91
2023/04/22 08:34:01;;;;;;;;;;;16.41;0.32;;;;;;2671802;76;20429;-91
2023/04/22 08:37:31;;;;;;;;;;;16.59;0.06;;;;;;2672599;76;20433;-91
2023/04/22 08:40:59;;;;;;;;;;;16.70;-0.42;;;;;;2671522;76;20409;-91
2023/04/22 08:44:27;;;;;;;;;;;16.85;-0.32;;;;;;2672193;76;20453;-91
2023/04/22 08:47:55;;;;;;;;;;;17.05;-0.90;;;;;;2672898;76;20422;-90
2023/04/22 08:51:23;;;;;;;;;;;17.21;-0.98;;;;;;2672273;76;20987;-91
2023/04/22 08:54:51;;;;;;;;;;;17.31;-1.48;;;;;;2675489;76;20430;-91
2023/04/22 08:58:19;;;;;;;;;;;17.44;-2.48;;;;;;2672040;76;20430;-91
2023/04/22 09:01:48;;;;;;;;;;;17.44;-3.56;;;;;;2671787;76;20976;-90
2023/04/22 09:05:16;;;;;;;;;;;17.38;-3.97;;;;;;2671687;76;20992;-91
2023/04/22 09:08:44;;;;;;;;;;;17.41;-5.05;;;;;;2671607;76;20453;-91
2023/04/22 09:12:12;;;;;;;;;;;17.50;118.95;;;;;;2672537;76;20432;-92
2023/04/22 09:15:41;;;;;;;;;;;17.54;117.68;;;;;;2671914;76;20461;-91
2023/04/22 09:19:09;;;;;;;;;;;17.72;117.57;;;;;;2671629;76;20348;-91
2023/04/22 09:22:38;;;;;;;;;;;17.77;117.75;;;;;;2671456;76;20479;-91
2023/04/22 09:26:06;;;;;;;;;;;17.90;118.09;;;;;;2672440;76;20434;-91
2023/04/22 09:29:41;;;;;;;;;;;18.00;118.08;;;;;;2672272;76;20546;-91
2023/04/22 09:33:06;;;;;;;;;;;18.19;118.10;;;;;;2671156;76;20429;-92
2023/04/22 09:36:40;;;;;;;;;;;18.38;118.03;;;;;;2670702;76;20426;-92
2023/04/22 09:40:04;;;;;;;;;;;18.49;117.85;;;;;;2672257;76;20428;-91
2023/04/22 09:43:33;;;;;;;;;;;18.53;117.73;;;;;;2672461;76;20417;-92
2023/04/22 09:47:04;;;;;;;;;;;18.70;116.79;;;;;;2672079;76;20793;-92
2023/04/22 09:50:32;;;;;;;;;;;18.78;114.91;;;;;;2672608;76;20340;-93
2023/04/22 09:54:00;;;;;;;;;;;18.99;114.48;;;;;;2672402;76;20956;-93
2023/04/22 09:57:28;;;;;;;;;;;19.05;115.02;;;;;;2671775;76;20469;-92
2023/04/22 10:01:02;;;;;;;;;;;19.00;115.35;;;;;;2672959;76;20468;-92
2023/04/22 10:04:35;;;;;;;;;;;18.93;115.70;;;;;;2671504;76;20439;-92
2023/04/22 10:08:00;;;;;;;;;;;18.96;115.19;;;;;;2672145;76;20447;-93
2023/04/22 10:11:28;;;;;;;;;;;19.02;113.96;;;;;;2672070;76;20452;-92
2023/04/22 10:14:56;;;;;;;;;;;19.17;112.86;;;;;;2670413;76;20444;-92
2023/04/22 10:18:24;;;;;;;;;;;19.18;113.09;;;;;;2670213;76;20518;-91
2023/04/22 10:21:52;;;;;;;;;;;19.29;113.33;;;;;;2671564;76;20460;-90
2023/04/22 10:25:21;;;;;;;;;;;19.31;112.87;;;;;;2671755;76;20456;-90
2023/04/22 10:28:50;;;;;;;;;;;19.46;111.84;;;;;;2669925;76;21216;-91
2023/04/22 10:32:18;;;;;;;;;;;19.54;111.23;;;;;;2670643;76;20923;-92
2023/04/22 10:35:46;;;;;;;;;;;19.65;111.21;;;;;;2670760;76;20878;-93
2023/04/22 10:39:14;;;;;;;;;;;19.72;111.26;;;;;;2670179;76;20488;-92
2023/04/22 10:42:43;;;;;;;;;;;19.70;110.48;;;;;;2672140;76;20454;-92
2023/04/22 10:46:11;;;;;;;;;;;19.72;109.27;;;;;;2672359;76;20919;-92
2023/04/22 10:49:39;;;;;;;;;;;19.80;108.99;;;;;;2672049;76;20938;-92
2023/04/22 10:53:07;;;;;;;;;;;19.85;106.69;;;;;;2672259;76;20493;-92
2023/04/22 10:56:35;;;;;;;;;;;19.98;106.16;;;;;;2671160;76;20472;-92
2023/04/22 11:00:03;;;;;;;;;;;20.22;105.37;;;;;;2671621;76;20839;-92
2023/04/22 11:03:31;;;;;;;;;;;20.42;105.40;;;;;;2671793;76;20461;-93
2023/04/22 11:07:00;;;;;;;;;;;20.41;103.22;;;;;;2671951;76;20462;-93
2023/04/22 11:10:28;;;;;;;;;;;20.54;103.55;;;;;;2671594;76;20462;-92
2023/04/22 11:13:56;;;;;;;;;;;20.50;103.04;;;;;;2672252;76;21016;-92
2023/04/22 11:17:24;;;;;;;;;;;20.54;102.03;;;;;;2671238;76;20509;-92
2023/04/22 11:20:52;;;;;;;;;;;20.68;102.83;;;;;;2672387;76;20878;-92
2023/04/22 11:24:20;;;;;;;;;;;20.66;102.84;;;;;;2670560;76;20453;-91
2023/04/22 11:27:49;;;;;;;;;;;20.79;102.62;;;;;;2671615;76;20445;-92
2023/04/22 11:31:17;;;;;;;;;;;20.74;102.22;;;;;;2672591;76;20436;-93
2023/04/22 11:34:45;;;;;;;;;;;20.71;102.63;;;;;;2670453;76;20480;-92
2023/04/22 11:38:15;;;;;;;;;;;20.66;102.28;;;;;;2671872;76;20465;-92
2023/04/22 11:41:46;;;;;;;;;;;20.65;100.28;;;;;;2672735;76;20423;-92
2023/04/22 11:45:15;;;;;;;;;;;20.79;100.04;;;;;;2669814;76;20484;-92
2023/04/22 11:48:43;;;;;;;;;;;21.11;99.93;;;;;;2671476;76;20977;-92
2023/04/22 11:52:11;;;;;;;;;;;21.22;98.82;;;;;;2671872;76;20505;-92
2023/04/22 11:55:39;;;;;;;;;;;21.44;98.52;;;;;;2671552;76;20452;-93
2023/04/22 11:59:07;;;;;;;;;;;21.82;97.28;;;;;;2671758;76;20337;-92
2023/04/22 12:02:35;;;;;;;;;;;22.14;96.19;;;;;;2671318;76;20427;-93
2023/04/22 12:06:03;;;;;;;;;;;22.48;95.46;;;;;;2672071;76;20467;-93
2023/04/22 12:09:31;;;;;;;;;;;22.79;95.27;;;;;;2671919;76;20464;-93
2023/04/22 12:12:59;;;;;;;;;;;23.10;95.33;;;;;;2671847;76;20463;-92
2023/04/22 12:16:27;;;;;;;;;;;23.27;93.25;;;;;;2672075;76;20437;-93
2023/04/22 12:19:56;;;;;;;;;;;23.36;92.79;;;;;;2671805;76;20436;-93
2023/04/22 12:23:24;;;;;;;;;;;23.36;94.31;;;;;;2672690;76;20333;-92
2023/04/22 12:26:53;;;;;;;;;;;23.34;94.45;;;;;;2670715;76;20477;-91
2023/04/22 12:30:23;;;;;;;;;;;23.26;95.38;;;;;;2671178;76;20950;-92
2023/04/22 12:33:51;;;;;;;;;;;23.12;94.98;;;;;;2671851;76;20449;-93
2023/04/22 12:37:19;;;;;;;;;;;22.97;94.35;;;;;;2671560;76;20476;-92
2023/04/22 12:40:49;;;;;;;;;;;23.06;94.56;;;;;;2672151;76;20476;-93
2023/04/22 12:44:18;;;;;;;;;;;22.97;94.40;;;;;;2672581;76;20603;-92
2023/04/22 12:47:46;;;;;;;;;;;22.84;93.94;;;;;;2671917;76;20482;-93
2023/04/22 12:51:14;;;;;;;;;;;22.81;94.51;;;;;;2671991;76;20494;-93
2023/04/22 12:54:42;;;;;;;;;;;22.77;94.41;;;;;;2672344;76;20809;-93
2023/04/22 12:58:13;;;;;;;;;;;22.85;94.31;;;;;;2672128;76;20476;-92
2023/04/22 13:01:41;;;;;;;;;;;22.94;93.77;;;;;;2672540;76;20492;-92
2023/04/22 13:05:10;;;;;;;;;;;22.98;94.14;;;;;;2671781;76;20463;-93
2023/04/22 13:08:38;;;;;;;;;;;23.03;94.21;;;;;;2671393;76;20470;-92
2023/04/22 13:12:06;;;;;;;;;;;23.07;92.08;;;;;;2672292;76;20499;-93
2023/04/22 13:15:38;;;;;;;;;;;23.34;91.54;;;;;;2671768;76;20456;-92
2023/04/22 13:19:06;;;;;;;;;;;23.44;91.66;;;;;;2671972;76;20513;-92
2023/04/22 13:22:35;;;;;;;;;;;23.61;91.71;;;;;;2670231;76;20486;-92
2023/04/22 13:26:03;;;;;;;;;;;23.72;91.14;;;;;;2670645;76;20432;-93
2023/04/22 13:29:31;;;;;;;;;;;23.95;91.66;;;;;;2672000;76;20471;-92
2023/04/22 13:33:02;;;;;;;;;;;23.88;91.16;;;;;;2672967;76;20426;-92
2023/04/22 13:36:30;;;;;;;;;;;24.20;90.61;;;;;;2673055;76;20464;-93
2023/04/22 13:39:58;;;;;;;;;;;24.26;91.44;;;;;;2672722;76;20439;-92
2023/04/22 13:43:26;;;;;;;;;;;24.38;91.49;;;;;;2672061;76;21009;-92
2023/04/22 13:46:55;;;;;;;;;;;24.65;91.63;;;;;;2672837;76;20468;-92
2023/04/22 13:50:23;;;;;;;;;;;24.69;91.79;;;;;;2671848;76;20470;-92
2023/04/22 13:53:51;;;;;;;;;;;24.98;91.69;;;;;;2672441;76;20446;-92
2023/04/22 13:57:19;;;;;;;;;;;24.89;91.02;;;;;;2672798;76;20451;-93
2023/04/22 14:00:47;;;;;;;;;;;24.86;91.43;;;;;;2671813;76;20451;-93
2023/04/22 14:04:18;;;;;;;;;;;24.76;92.30;;;;;;2671854;76;20555;-92
2023/04/22 14:07:46;;;;;;;;;;;24.73;92.57;;;;;;2671432;76;20326;-92
2023/04/22 14:11:17;;;;;;;;;;;24.62;91.94;;;;;;2672501;76;20333;-93
2023/04/22 14:14:49;;;;;;;;;;;24.74;92.14;;;;;;2672414;76;20459;-92
2023/04/22 14:18:14;;;;;;;;;;;24.69;92.11;;;;;;2671598;76;20443;-92
2023/04/22 14:21:43;;;;;;;;;;;24.61;91.81;;;;;;2672365;76;20570;-92
2023/04/22 14:25:11;;;;;;;;;;;24.61;92.40;;;;;;2670900;76;20445;-92
2023/04/22 14:28:39;;;;;;;;;;;24.73;91.51;;;;;;2671383;76;20336;-92
2023/04/22 14:32:07;;;;;;;;;;;24.77;91.56;;;;;;2671535;76;20335;-92
2023/04/22 14:35:35;;;;;;;;;;;25.84;91.47;;;;;;2669409;76;20451;-92
2023/04/22 14:39:03;;;;;;;;;;;30.03;87.85;;;;;;2670502;76;20336;-92
2023/04/22 14:42:34;;;;;;;;;;;33.26;81.32;;;;;;2672210;76;20504;-92
2023/04/22 14:46:02;;;;;;;;;;;34.66;78.63;;;;;;2671889;76;20444;-93
2023/04/22 14:49:30;;;;;;;;;;;36.02;76.14;;;;;;2670409;76;20781;-92
2023/04/22 14:52:59;;;;;;;;;;;36.02;74.54;;;;;;2671337;76;20465;-93
2023/04/22 14:56:27;;;;;;;;;;;35.49;74.83;;;;;;2670439;76;20446;-94
2023/04/22 14:59:55;;;;;;;;;;;36.10;73.38;;;;;;2672286;76;20892;-94
2023/04/22 15:03:23;;;;;;;;;;;36.14;73.51;;;;;;2670527;76;20923;-94
2023/04/22 15:06:56;;;;;;;;;;;35.52;71.38;;;;;;2670646;76;20462;-92
2023/04/22 15:10:21;;;;;;;;;;;35.52;71.25;;;;;;2670071;76;20446;-90
2023/04/22 15:13:49;;;;;;;;;;;33.40;70.27;;;;;;2674905;76;20550;-91
2023/04/22 15:17:17;;;;;;;;;;;32.14;70.27;;;;;;2676983;76;20957;-92
2023/04/22 15:20:45;;;;;;;;;;;29.86;73.99;;;;;;2673361;76;20490;-89
2023/04/22 15:24:13;;;;;;;;;;;32.28;72.79;;;;;;2670956;76;21010;-90
2023/04/22 15:27:43;;;;;;;;;;;30.85;72.73;;;;;;2670736;76;20506;-90
2023/04/22 15:31:12;;;;;;;;;;;28.83;75.89;;;;;;2671899;76;20487;-90
2023/04/22 15:34:40;;;;;;;;;;;31.06;75.36;;;;;;2670631;76;20825;-90
2023/04/22 15:38:08;;;;;;;;;;;31.28;73.19;;;;;;2669292;76;20450;-90
2023/04/22 15:41:44;;;;;;;;;;;30.07;73.91;;;;;;2669007;76;20476;-90
2023/04/22 15:45:06;;;;;;;;;;;28.24;75.52;;;;;;2669310;76;20475;-90
2023/04/22 15:48:37;;;;;;;;;;;27.19;77.29;;;;;;2667882;76;20471;-90
2023/04/22 15:52:08;;;;;;;;;;;26.27;78.40;;;;;;2669179;76;20516;-90
2023/04/22 15:55:41;;;;;;;;;;;25.66;79.75;;;;;;2670807;76;20449;-90
2023/04/22 15:59:11;;;;;;;;;;;27.11;79.65;;;;;;2671202;76;20465;-91
2023/04/22 16:02:40;;;;;;;;;;;27.53;78.43;;;;;;2672080;76;20313;-90
2023/04/22 16:06:22;;;;;;;;;;;;;;;;;;;;;
2023/04/22 16:09:48;;;;;;;;;;;28.06;76.95;;;;;;2671465;76;20438;-91
2023/04/22 16:13:20;;;;;;;;;;;26.60;79.24;;;;;;2672089;76;20297;-90
2023/04/22 16:16:53;;;;;;;;;;;25.54;80.58;;;;;;2671937;76;20478;-90
2023/04/22 16:20:21;;;;;;;;;;;24.86;82.36;;;;;;2669596;76;20436;-91
2023/04/22 16:23:54;;;;;;;;;;;24.36;83.28;;;;;;2670353;76;20468;-91
2023/04/22 16:27:31;;;;;;;;;;;23.91;84.30;;;;;;2670577;76;20926;-90
2023/04/22 16:31:02;;;;;;;;;;;23.80;84.70;;;;;;2670482;76;20445;-90
2023/04/22 16:34:30;;;;;;;;;;;24.75;84.12;;;;;;2670477;76;20460;-91
2023/04/22 16:38:05;;;;;;;;;;;25.03;83.64;;;;;;2671968;76;20436;-90
2023/04/22 16:41:43;;;;;;;;;;;27.71;81.06;;;;;;2671891;76;20428;-89
2023/04/22 16:45:12;;;;;;;;;;;28.74;78.25;;;;;;2670291;76;20499;-90
2023/04/22 16:48:55;;;;;;;;;;;28.02;78.35;;;;;;2671932;76;20438;-90
2023/04/22 16:52:27;;;;;;;;;;;25.92;81.33;;;;;;2671058;76;20461;-90
2023/04/22 16:55:57;;;;;;;;;;;26.71;82.74;;;;;;2674973;76;20323;-94
2023/04/22 16:59:31;;;;;;;;;;;28.94;78.43;;;;;;2679653;76;20420;-94
2023/04/22 17:03:19;;;;;;;;;;;;;;;;;;;;;
2023/04/22 17:10:44;;;;;;;;;;;;;;;;;;;;;
2023/04/22 17:14:15;;;;;;;;;;;26.62;79.59;;;;;;2672661;76;21010;-90
2023/04/22 17:21:29;;;;;;;;;;;;;;;;;;;;;
2023/04/22 17:24:55;;;;;;;;;;;23.30;85.12;;;;;;2670120;76;20446;-91
2023/04/22 17:28:32;;;;;;;;;;;22.82;85.84;;;;;;2669330;76;20440;-92
2023/04/22 17:35:42;;;;;;;;;;;21.88;87.24;;;;;;2670386;76;20904;-91
2023/04/22 17:43:02;;;;;;;;;;;21.19;88.15;;;;;;2668329;76;20666;-91
2023/04/22 17:46:44;;;;;;;;;;;20.90;88.73;;;;;;2669651;76;20427;-90
2023/04/22 17:50:27;;;;;;;;;;;;;;;;;;;;;
2023/04/22 17:53:51;;;;;;;;;;;20.36;89.73;;;;;;2670468;76;20433;-91
2023/04/22 17:57:27;;;;;;;;;;;20.15;90.04;;;;;;2670847;76;20446;-91
2023/04/22 18:01:11;;;;;;;;;;;19.91;90.47;;;;;;2671999;76;20436;-91
2023/04/22 18:04:45;;;;;;;;;;;19.76;90.82;;;;;;2671354;76;20747;-91
2023/04/22 18:08:13;;;;;;;;;;;19.57;91.15;;;;;;2671415;76;20432;-91
2023/04/22 18:23:03;;;;;;;;;;;18.72;92.90;;;;;;2672481;76;20337;-92
2023/04/22 18:27:05;;;;;;;;;;;;;;;;;;;;;
2023/04/22 18:30:25;;;;;;;;;;;18.09;94.38;;;;;;2673713;76;20422;-92
2023/04/22 18:34:09;;;;;;;;;;;17.83;95.04;;;;;;2670672;76;20445;-93
2023/04/22 18:37:33;;;;;;;;;;;17.59;95.68;;;;;;2671904;76;20413;-92
2023/04/22 18:45:08;;;;;;;;;;;17.17;97.24;;;;;;2673341;76;20429;-92
2023/04/22 18:48:48;;;;;;;;;;;;;;;;;;;;;
2023/04/22 18:52:20;;;;;;;;;;;16.82;98.37;;;;;;2670787;76;20554;-92
2023/04/22 18:55:51;;;;;;;;;;;16.71;98.55;;;;;;2672577;76;20458;-93
2023/04/22 18:59:23;;;;;;;;;;;16.57;98.84;;;;;;2674914;76;20444;-92
2023/04/22 19:02:53;;;;;;;;;;;16.45;99.14;;;;;;2670966;76;20956;-91
2023/04/22 19:06:29;;;;;;;;;;;16.36;99.57;;;;;;2669879;76;20477;-90
2023/04/22 19:09:54;;;;;;;;;;;16.40;100.07;;;;;;2670437;76;20430;-92
2023/04/22 19:13:24;;;;;;;;;;;16.45;100.48;;;;;;2670433;76;20438;-91
2023/04/22 19:16:52;;;;;;;;;;;16.39;102.34;;;;;;2670837;76;20487;-90
2023/04/22 19:20:25;;;;;;;;;;;16.27;106.27;;;;;;2670942;76;20471;-89
2023/04/22 19:23:53;;;;;;;;;;;16.40;105.37;;;;;;2670797;76;20724;-90
2023/04/22 19:27:28;;;;;;;;;;;16.55;104.72;;;;;;2670740;76;20427;-90
2023/04/22 19:34:42;;;;;;;;;;;16.73;104.53;;;;;;2669222;76;20438;-90
2023/04/22 19:42:10;;;;;;;;;;;16.49;107.62;;;;;;2669762;76;20449;-91
2023/04/22 19:45:44;;;;;;;;;;;16.52;107.35;;;;;;2670448;76;20452;-90
2023/04/22 19:49:14;;;;;;;;;;;16.49;107.68;;;;;;2670907;76;20474;-89
2023/04/22 19:52:44;;;;;;;;;;;16.55;107.93;;;;;;2670999;76;20486;-90
2023/04/22 19:56:12;;;;;;;;;;;16.65;107.43;;;;;;2670436;76;20439;-91
2023/04/22 19:59:40;;;;;;;;;;;16.76;107.07;;;;;;2670500;76;20470;-89
2023/04/22 20:03:08;;;;;;;;;;;16.77;107.29;;;;;;2669687;76;20950;-89
2023/04/22 20:06:37;;;;;;;;;;;16.85;107.11;;;;;;2670632;76;20449;-90
2023/04/22 20:10:05;;;;;;;;;;;16.88;106.99;;;;;;2671169;76;20446;-92
2023/04/22 20:13:33;;;;;;;;;;;16.88;107.00;;;;;;2671162;76;20966;-92
2023/04/22 20:17:02;;;;;;;;;;;16.75;107.85;;;;;;2671133;76;20955;-92
2023/04/22 20:20:30;;;;;;;;;;;16.49;110.13;;;;;;2670312;76;20472;-92
2023/04/22 20:23:58;;;;;;;;;;;16.39;110.71;;;;;;2671095;76;20709;-92
2023/04/22 20:27:26;;;;;;;;;;;16.45;111.35;;;;;;2671412;76;20388;-91
2023/04/22 20:30:54;;;;;;;;;;;16.37;112.39;;;;;;2671465;76;20452;-92
2023/04/22 20:34:22;;;;;;;;;;;16.35;112.48;;;;;;2671163;76;20427;-93
2023/04/22 20:37:51;;;;;;;;;;;16.18;113.65;;;;;;2671392;76;20456;-92
2023/04/22 20:41:19;;;;;;;;;;;16.13;114.22;;;;;;2671291;76;20441;-92
2023/04/22 20:44:50;;;;;;;;;;;16.06;114.26;;;;;;2671003;76;20420;-92
2023/04/22 20:48:18;;;;;;;;;;;16.05;113.64;;;;;;2670760;76;20470;-91
2023/04/22 20:51:47;;;;;;;;;;;16.01;113.33;;;;;;2672724;76;20340;-92
2023/04/22 20:55:15;;;;;;;;;;;16.02;113.04;;;;;;2671974;76;20942;-92
2023/04/22 20:58:43;;;;;;;;;;;16.05;113.45;;;;;;2671719;76;20307;-93
2023/04/22 21:02:15;;;;;;;;;;;16.03;113.55;;;;;;2670635;76;20421;-92
2023/04/22 21:05:45;;;;;;;;;;;16.10;113.26;;;;;;2670631;76;20437;-92
2023/04/22 21:09:14;;;;;;;;;;;16.08;113.30;;;;;;2671986;76;20318;-93
2023/04/22 21:12:42;;;;;;;;;;;16.14;113.03;;;;;;2672030;76;20473;-92
2023/04/22 21:16:10;;;;;;;;;;;16.11;112.77;;;;;;2672660;76;20445;-92
2023/04/22 21:19:38;;;;;;;;;;;16.03;112.58;;;;;;2672271;76;20457;-91